Time;durP1;ratioP1;P1;durP2;ratioP2;P2;SDS_P1;SDS_P2;PMS_P1;PMS_P2;Temp;Humidity;BMP_temperature;BMP_pressure;BME280_temperature;BME280_humidity;BME280_pressure;Samples;Min_cycle;Max_cycle;Signal;HPM_P1;HPM_P2
2021/10/19 00:02:06;;;;;;;52.28;21.20;;;;;;;-139.48;100.00;61774.03;4998704;28;20545;-71
2021/10/19 00:04:50;;;;;;;69.63;24.55;;;;;;;-139.48;100.00;61774.03;5013421;28;20045;-70
2021/10/19 00:07:34;;;;;;;52.03;22.05;;;;;;;-139.48;100.00;61774.03;5013424;28;20049;-71
2021/10/19 00:10:18;;;;;;;50.97;21.83;;;;;;;-139.48;100.00;61774.03;5012348;28;20104;-70
2021/10/19 00:13:02;;;;;;;80.15;20.02;;;;;;;-139.48;100.00;61774.03;5012397;28;20052;-71
2021/10/19 00:15:46;;;;;;;100.93;20.67;;;;;;;-139.48;100.00;61774.03;4998461;28;20414;-70
2021/10/19 00:18:30;;;;;;;100.03;19.92;;;;;;;-139.48;100.00;61774.03;5013386;28;20081;-71
2021/10/19 00:21:14;;;;;;;64.72;19.63;;;;;;;-139.48;100.00;61774.03;5013041;28;20104;-71
2021/10/19 00:23:58;;;;;;;44.28;19.77;;;;;;;-139.48;100.00;61774.03;5012313;28;20065;-70
2021/10/19 00:26:42;;;;;;;52.28;19.50;;;;;;;-139.48;100.00;61774.03;5012030;28;20124;-71
2021/10/19 00:29:26;;;;;;;44.20;18.27;;;;;;;-139.48;100.00;61774.03;5012204;28;20056;-71
2021/10/19 00:32:11;;;;;;;70.13;21.10;;;;;;;-139.48;100.00;61774.03;4998377;28;20136;-71
2021/10/19 00:34:55;;;;;;;72.20;19.52;;;;;;;-139.48;100.00;61774.03;5012936;28;20048;-71
2021/10/19 00:37:39;;;;;;;78.38;18.08;;;;;;;-139.48;100.00;61774.03;5011674;28;20091;-71
2021/10/19 00:40:23;;;;;;;67.32;19.70;;;;;;;-139.48;100.00;61774.03;5012371;28;20184;-70
2021/10/19 00:43:07;;;;;;;69.60;18.67;;;;;;;-139.48;100.00;61774.03;5011842;28;20410;-71
2021/10/19 00:45:50;;;;;;;47.95;19.75;;;;;;;-139.48;100.00;61774.03;4997994;28;20100;-71
2021/10/19 00:48:38;;;;;;;81.05;20.65;;;;;;;-139.48;100.00;61774.03;4998209;28;20045;-70
2021/10/19 00:51:22;;;;;;;63.10;21.33;;;;;;;-139.48;100.00;61774.03;5013273;28;20068;-71
2021/10/19 00:54:06;;;;;;;61.70;20.75;;;;;;;-139.48;100.00;61774.03;4998153;28;20072;-70
2021/10/19 00:56:54;;;;;;;50.90;19.75;;;;;;;-139.48;100.00;61774.03;5014735;28;20462;-70
2021/10/19 00:59:43;;;;;;;43.70;19.77;;;;;;;-139.48;100.00;61774.03;5015230;28;20049;-71
2021/10/19 01:02:27;;;;;;;42.70;17.63;;;;;;;-139.48;100.00;61774.03;5001536;28;20084;-71
2021/10/19 01:05:12;;;;;;;49.30;19.15;;;;;;;-139.48;100.00;61774.03;5016081;28;20045;-71
2021/10/19 01:07:56;;;;;;;55.05;21.50;;;;;;;-139.48;100.00;61774.03;5015009;28;20052;-71
2021/10/19 01:10:43;;;;;;;58.95;20.50;;;;;;;-139.48;100.00;61774.03;5001222;28;20419;-71
2021/10/19 01:13:28;;;;;;;48.38;21.23;;;;;;;-139.48;100.00;61774.03;5015207;28;20050;-70
2021/10/19 01:16:12;;;;;;;61.75;23.27;;;;;;;-139.48;100.00;61774.03;5001296;28;20044;-71
2021/10/19 01:18:57;;;;;;;59.22;23.02;;;;;;;-139.48;100.00;61774.03;5001290;28;20514;-71
2021/10/19 01:21:49;;;;;;;60.22;22.60;;;;;;;-139.48;100.00;61774.03;5015022;28;20097;-71
2021/10/19 01:24:34;;;;;;;56.72;23.23;;;;;;;-139.48;100.00;61774.03;5015976;28;20049;-71
2021/10/19 01:27:18;;;;;;;57.38;23.10;;;;;;;-139.48;100.00;61774.03;5014553;28;20057;-71
2021/10/19 01:30:02;;;;;;;60.67;21.95;;;;;;;-139.48;100.00;61774.03;5001041;28;20154;-70
2021/10/19 01:32:46;;;;;;;49.50;21.30;;;;;;;-139.48;100.00;61774.03;5000735;28;20471;-71
2021/10/19 01:35:38;;;;;;;56.85;20.80;;;;;;;-139.48;100.00;61774.03;5014778;28;20040;-71
2021/10/19 01:38:25;;;;;;;54.47;22.92;;;;;;;-139.48;100.00;61774.03;5015637;28;20057;-71
2021/10/19 01:41:09;;;;;;;62.25;22.70;;;;;;;-139.48;100.00;61774.03;5000599;28;20423;-71
2021/10/19 01:43:54;;;;;;;54.42;22.40;;;;;;;-139.48;100.00;61774.03;5014656;28;20139;-70
2021/10/19 01:46:38;;;;;;;60.97;23.30;;;;;;;-139.48;100.00;61774.03;5015425;28;20172;-71
2021/10/19 01:49:21;;;;;;;76.80;24.95;;;;;;;-139.48;100.00;61774.03;5014313;28;20092;-71
2021/10/19 01:52:05;;;;;;;65.80;22.48;;;;;;;-139.48;100.00;61774.03;5014712;28;20045;-70
2021/10/19 01:54:49;;;;;;;60.28;21.95;;;;;;;-139.48;100.00;61774.03;5000674;28;20052;-71
2021/10/19 01:57:34;;;;;;;70.93;22.90;;;;;;;-139.48;100.00;61774.03;5015122;28;20057;-71
2021/10/19 02:00:17;;;;;;;;;;;;;;;-139.48;100.00;61774.03;5014497;28;20107;-70
2021/10/19 02:03:06;;;;;;;60.40;24.02;;;;;;;-139.48;100.00;61774.03;5014347;28;20385;-71
2021/10/19 02:05:50;;;;;;;71.60;25.80;;;;;;;-139.48;100.00;61774.03;5000119;28;20410;-71
2021/10/19 02:08:34;;;;;;;59.40;24.73;;;;;;;-139.48;100.00;61774.03;5013986;28;20172;-71
2021/10/19 02:11:19;;;;;;;65.82;23.25;;;;;;;-139.48;100.00;61774.03;5000417;28;20141;-71
2021/10/19 02:14:03;;;;;;;64.45;24.35;;;;;;;-139.48;100.00;61774.03;5013844;28;20434;-71
2021/10/19 02:16:47;;;;;;;65.20;24.27;;;;;;;-139.48;100.00;61774.03;5014000;28;20105;-71
2021/10/19 02:19:31;;;;;;;60.75;24.75;;;;;;;-139.48;100.00;61774.03;5013943;28;20514;-71
2021/10/19 02:22:14;;;;;;;58.72;23.75;;;;;;;-139.48;100.00;61774.03;5013925;28;20053;-71
2021/10/19 02:24:59;;;;;;;60.28;24.27;;;;;;;-139.48;100.00;61774.03;5014070;28;20084;-70
2021/10/19 02:27:43;;;;;;;57.20;24.50;;;;;;;-139.48;100.00;61774.03;5013446;28;20056;-71
2021/10/19 02:30:28;;;;;;;59.75;23.50;;;;;;;-139.48;100.00;61774.03;5013760;28;20518;-71
2021/10/19 02:33:12;;;;;;;68.32;25.90;;;;;;;-139.48;100.00;61774.03;5013781;28;20056;-71
2021/10/19 02:35:56;;;;;;;66.95;24.52;;;;;;;-139.48;100.00;61774.03;5013440;28;20084;-71
2021/10/19 02:38:40;;;;;;;75.90;25.48;;;;;;;-139.48;100.00;61774.03;5013638;28;20049;-71
2021/10/19 02:41:23;;;;;;;81.63;26.55;;;;;;;-139.48;100.00;61774.03;5013829;28;20505;-71
2021/10/19 02:44:07;;;;;;;57.80;25.13;;;;;;;-139.48;100.00;61774.03;5013720;28;20049;-71
2021/10/19 02:46:51;;;;;;;64.15;25.55;;;;;;;-139.48;100.00;61774.03;5013348;28;20553;-71
2021/10/19 02:49:35;;;;;;;73.20;26.85;;;;;;;-139.48;100.00;61774.03;4999593;28;20052;-71
2021/10/19 02:52:19;;;;;;;63.80;25.88;;;;;;;-139.48;100.00;61774.03;5013496;28;20521;-71
2021/10/19 02:55:05;;;;;;;71.50;26.17;;;;;;;-139.48;100.00;61774.03;5013344;28;20127;-70
2021/10/19 02:57:49;;;;;;;79.07;25.25;;;;;;;-139.48;100.00;61774.03;4999157;28;20049;-71
2021/10/19 03:00:33;;;;;;;69.53;26.15;;;;;;;-139.48;100.00;61774.03;5014254;28;20069;-71
2021/10/19 03:03:17;;;;;;;71.72;25.92;;;;;;;-139.48;100.00;61774.03;5013217;28;20052;-71
2021/10/19 03:06:01;;;;;;;73.82;23.88;;;;;;;-139.48;100.00;61774.03;5013078;28;20176;-71
2021/10/19 03:08:45;;;;;;;71.00;27.35;;;;;;;-139.48;100.00;61774.03;5012838;28;20105;-71
2021/10/19 03:11:29;;;;;;;85.55;25.77;;;;;;;-139.48;100.00;61774.03;5013067;28;20053;-70
2021/10/19 03:14:13;;;;;;;71.70;25.48;;;;;;;-139.48;100.00;61774.03;4999439;28;20048;-70
2021/10/19 03:16:56;;;;;;;72.68;24.30;;;;;;;-139.48;100.00;61774.03;5012839;28;20048;-71
2021/10/19 03:19:40;;;;;;;77.10;26.17;;;;;;;-139.48;100.00;61774.03;4998473;28;20423;-71
2021/10/19 03:22:24;;;;;;;74.70;25.25;;;;;;;-139.48;100.00;61774.03;4999084;28;20056;-71
2021/10/19 03:25:09;;;;;;;70.18;25.73;;;;;;;-139.48;100.00;61774.03;5013826;28;20407;-71
2021/10/19 03:27:53;;;;;;;93.10;25.90;;;;;;;-139.48;100.00;61774.03;5013566;28;20049;-71
2021/10/19 03:30:36;;;;;;;70.07;26.02;;;;;;;-139.48;100.00;61774.03;5013813;28;20084;-71
2021/10/19 03:33:20;;;;;;;67.43;25.50;;;;;;;-139.48;100.00;61774.03;5013794;28;20099;-71
2021/10/19 03:36:06;;;;;;;66.38;26.75;;;;;;;-139.48;100.00;61774.03;4998532;28;20124;-72
2021/10/19 03:38:50;;;;;;;82.00;24.92;;;;;;;-139.48;100.00;61774.03;5014375;28;20053;-71
2021/10/19 03:41:34;;;;;;;63.92;26.00;;;;;;;-139.48;100.00;61774.03;5012716;28;20106;-71
2021/10/19 03:44:18;;;;;;;77.90;27.48;;;;;;;-139.48;100.00;61774.03;5013408;28;20057;-71
2021/10/19 03:47:02;;;;;;;70.05;28.63;;;;;;;-139.48;100.00;61774.03;5012558;28;20092;-71
2021/10/19 03:49:46;;;;;;;75.32;25.85;;;;;;;-139.48;100.00;61774.03;5012619;28;20052;-71
2021/10/19 03:52:30;;;;;;;86.38;26.90;;;;;;;-139.48;100.00;61774.03;5012632;28;20049;-71
2021/10/19 03:55:14;;;;;;;71.80;25.85;;;;;;;-139.48;100.00;61774.03;5013372;28;20052;-71
2021/10/19 03:57:57;;;;;;;79.80;26.98;;;;;;;-139.48;100.00;61774.03;5012250;28;20052;-68
2021/10/19 04:00:41;;;;;;;65.43;26.20;;;;;;;-139.48;100.00;61774.03;5013544;28;20120;-71
2021/10/19 04:03:25;;;;;;;68.82;26.83;;;;;;;-139.48;100.00;61774.03;5013289;28;20057;-70
2021/10/19 04:06:12;;;;;;;69.63;25.52;;;;;;;-139.48;100.00;61774.03;5012101;28;20562;-71
2021/10/19 04:08:56;;;;;;;61.88;24.60;;;;;;;-139.48;100.00;61774.03;5013411;28;20048;-71
2021/10/19 04:11:39;;;;;;;56.67;26.17;;;;;;;-139.48;100.00;61774.03;5013196;28;20048;-71
2021/10/19 04:14:23;;;;;;;65.50;26.63;;;;;;;-139.48;100.00;61774.03;5012342;28;20410;-71
2021/10/19 04:17:07;;;;;;;68.53;26.52;;;;;;;-139.48;100.00;61774.03;4998483;28;20053;-71
2021/10/19 04:19:51;;;;;;;61.88;26.15;;;;;;;-139.48;100.00;61774.03;5012319;28;20096;-70
2021/10/19 04:22:35;;;;;;;57.63;24.50;;;;;;;-139.48;100.00;61774.03;5013480;28;20474;-71
2021/10/19 04:25:19;;;;;;;56.90;24.73;;;;;;;-139.48;100.00;61774.03;5012230;28;20410;-70
2021/10/19 04:28:03;;;;;;;52.45;23.73;;;;;;;-139.48;100.00;61774.03;5012182;28;20107;-69
2021/10/19 04:30:47;;;;;;;51.90;25.25;;;;;;;-139.48;100.00;61774.03;5013877;28;20100;-70
2021/10/19 04:33:31;;;;;;;56.28;25.27;;;;;;;-139.48;100.00;61774.03;5017031;28;20053;-70
2021/10/19 04:36:15;;;;;;;55.10;24.90;;;;;;;-139.48;100.00;61774.03;5015691;28;20048;-69
2021/10/19 04:38:59;;;;;;;52.25;24.48;;;;;;;-139.48;100.00;61774.03;5016637;28;20586;-69
2021/10/19 04:41:45;;;;;;;52.65;23.88;;;;;;;-139.48;100.00;61774.03;5015812;28;20526;-69
2021/10/19 04:44:31;;;;;;;60.08;24.92;;;;;;;-139.48;100.00;61774.03;5015793;28;20048;-70
2021/10/19 04:47:15;;;;;;;48.97;23.15;;;;;;;-139.48;100.00;61774.03;5015322;28;20049;-70
2021/10/19 04:49:59;;;;;;;52.50;24.15;;;;;;;-139.48;100.00;61774.03;5016708;28;20103;-70
2021/10/19 04:52:43;;;;;;;48.40;23.33;;;;;;;-139.48;100.00;61774.03;5016364;28;20053;-70
2021/10/19 04:55:28;;;;;;;51.75;22.75;;;;;;;-139.48;100.00;61774.03;5015295;28;20049;-69
2021/10/19 04:58:11;;;;;;;50.38;23.27;;;;;;;-139.48;100.00;61774.03;5015212;28;20419;-70
2021/10/19 05:00:55;;;;;;;49.35;23.15;;;;;;;-139.48;100.00;61774.03;5015724;28;20462;-70
2021/10/19 05:03:42;;;;;;;52.70;25.13;;;;;;;-139.48;100.00;61774.03;5016703;28;20411;-69
2021/10/19 05:06:25;;;;;;;49.28;23.50;;;;;;;-139.48;100.00;61774.03;5001480;28;20522;-70
2021/10/19 05:09:09;;;;;;;51.40;23.75;;;;;;;-139.48;100.00;61774.03;5001503;28;20103;-69
2021/10/19 05:11:53;;;;;;;77.82;25.65;;;;;;;-139.48;100.00;61774.03;5015245;28;20557;-70
2021/10/19 05:14:38;;;;;;;55.17;24.63;;;;;;;-139.48;100.00;61774.03;5016187;28;20057;-69
2021/10/19 05:17:22;;;;;;;51.60;22.55;;;;;;;-139.48;100.00;61774.03;5015373;28;20107;-68
2021/10/19 05:20:06;;;;;;;54.13;24.05;;;;;;;-139.48;100.00;61774.03;5015116;28;20104;-70
2021/10/19 05:22:50;;;;;;;50.15;23.90;;;;;;;-139.48;100.00;61774.03;5000916;28;20136;-70
2021/10/19 05:25:34;;;;;;;53.08;24.60;;;;;;;-139.48;100.00;61774.03;5015073;28;20510;-69
2021/10/19 05:28:18;;;;;;;47.55;23.23;;;;;;;-139.48;100.00;61774.03;5014943;28;20500;-70
2021/10/19 05:31:03;;;;;;;52.97;25.38;;;;;;;-139.48;100.00;61774.03;5014895;28;20176;-70
2021/10/19 05:33:47;;;;;;;49.42;24.33;;;;;;;-139.48;100.00;61774.03;5015890;28;20049;-69
2021/10/19 05:36:31;;;;;;;51.65;23.73;;;;;;;-139.48;100.00;61774.03;5014627;28;20048;-69
2021/10/19 05:39:15;;;;;;;47.35;22.45;;;;;;;-139.48;100.00;61774.03;5014784;28;20056;-69
2021/10/19 05:41:59;;;;;;;55.28;24.42;;;;;;;-139.48;100.00;61774.03;5014403;28;20131;-70
2021/10/19 05:44:43;;;;;;;57.35;26.17;;;;;;;-139.48;100.00;61774.03;5014385;28;20057;-69
2021/10/19 05:47:27;;;;;;;;;;;;;;;-139.48;100.00;61774.03;5000846;28;20049;-70
2021/10/19 05:50:17;;;;;;;51.70;24.23;;;;;;;-139.48;100.00;61774.03;5014278;28;20325;-70
2021/10/19 05:53:00;;;;;;;48.85;23.92;;;;;;;-139.48;100.00;61774.03;5014510;28;20129;-70
2021/10/19 05:55:44;;;;;;;52.58;24.38;;;;;;;-139.48;100.00;61774.03;5015120;28;20168;-71
2021/10/19 05:58:29;;;;;;;50.13;24.48;;;;;;;-139.48;100.00;61774.03;5015187;28;20057;-70
2021/10/19 06:01:13;;;;;;;56.22;25.17;;;;;;;-139.48;100.00;61774.03;5015080;28;20100;-70
2021/10/19 06:03:56;;;;;;;53.65;25.17;;;;;;;-139.48;100.00;61774.03;5015319;28;20121;-69
2021/10/19 06:06:40;;;;;;;58.10;25.42;;;;;;;-139.48;100.00;61774.03;5013992;28;20096;-69
2021/10/19 06:09:26;;;;;;;52.00;24.88;;;;;;;-139.48;100.00;61774.03;5000624;28;20048;-70
2021/10/19 06:12:10;;;;;;;52.47;25.25;;;;;;;-139.48;100.00;61774.03;5013866;28;20052;-70
2021/10/19 06:14:53;;;;;;;46.35;22.13;;;;;;;-139.48;100.00;61774.03;5013870;28;20048;-69
2021/10/19 06:17:37;;;;;;;47.80;24.85;;;;;;;-139.48;100.00;61774.03;5013949;28;20100;-69
2021/10/19 06:20:21;;;;;;;49.22;23.77;;;;;;;-139.48;100.00;61774.03;5013976;28;20048;-70
2021/10/19 06:23:05;;;;;;;51.53;24.52;;;;;;;-139.48;100.00;61774.03;5013767;28;20104;-70
2021/10/19 06:25:49;;;;;;;61.08;32.13;;;;;;;-139.48;100.00;61774.03;5013771;28;20133;-70
2021/10/19 06:28:33;;;;;;;63.13;33.25;;;;;;;-139.48;100.00;61774.03;5013851;28;20061;-68
2021/10/19 06:31:17;;;;;;;62.35;32.75;;;;;;;-139.48;100.00;61774.03;5013848;28;20049;-70
2021/10/19 06:34:01;;;;;;;51.58;25.58;;;;;;;-139.48;100.00;61774.03;5013768;28;20129;-70
2021/10/19 06:36:45;;;;;;;60.22;34.00;;;;;;;-139.48;100.00;61774.03;5013272;28;20096;-70
2021/10/19 06:39:29;;;;;;;53.97;26.38;;;;;;;-139.48;100.00;61774.03;5014366;28;20131;-70
2021/10/19 06:42:13;;;;;;;52.35;25.77;;;;;;;-139.48;100.00;61774.03;5014610;28;20513;-70
2021/10/19 06:45:00;;;;;;;56.00;26.67;;;;;;;-139.48;100.00;61774.03;5014290;28;20129;-70
2021/10/19 06:47:44;;;;;;;53.70;24.90;;;;;;;-139.48;100.00;61774.03;5013146;28;20534;-70
2021/10/19 06:50:28;;;;;;;52.20;25.05;;;;;;;-139.48;100.00;61774.03;5013439;28;20121;-70
2021/10/19 06:53:12;;;;;;;47.33;24.00;;;;;;;-139.48;100.00;61774.03;4999495;28;20060;-70
2021/10/19 06:55:56;;;;;;;48.67;24.23;;;;;;;-139.48;100.00;61774.03;5013249;28;20148;-70
2021/10/19 06:58:40;;;;;;;44.25;22.48;;;;;;;-139.48;100.00;61774.03;5014036;28;20049;-70
2021/10/19 07:01:24;;;;;;;46.05;23.30;;;;;;;-139.48;100.00;61774.03;5013209;28;20116;-70
2021/10/19 07:04:07;;;;;;;45.90;24.02;;;;;;;-139.48;100.00;61774.03;4999323;28;20080;-69
2021/10/19 07:06:51;;;;;;;48.78;25.50;;;;;;;-139.48;100.00;61774.03;5013949;28;20486;-70
2021/10/19 07:09:35;;;;;;;44.65;24.45;;;;;;;-139.48;100.00;61774.03;5013163;28;20470;-70
2021/10/19 07:12:19;;;;;;;53.10;26.30;;;;;;;-139.48;100.00;61774.03;5014080;28;20048;-70
2021/10/19 07:15:04;;;;;;;49.45;25.80;;;;;;;-139.48;100.00;61774.03;5013026;28;20088;-70
2021/10/19 07:17:48;;;;;;;41.95;23.45;;;;;;;-139.48;100.00;61774.03;5013896;28;20065;-69
2021/10/19 07:20:31;;;;;;;46.25;23.17;;;;;;;-139.48;100.00;61774.03;4999105;28;20517;-70
2021/10/19 07:23:17;;;;;;;46.08;24.50;;;;;;;-139.48;100.00;61774.03;5013131;28;20080;-70
2021/10/19 07:26:02;;;;;;;50.95;25.42;;;;;;;-139.48;100.00;61774.03;5012624;28;20048;-69
2021/10/19 07:28:46;;;;;;;47.00;23.60;;;;;;;-139.48;100.00;61774.03;5012785;28;20045;-70
2021/10/19 07:31:31;;;;;;;42.22;23.48;;;;;;;-139.48;100.00;61774.03;5013819;28;20049;-69
2021/10/19 07:34:15;;;;;;;52.50;25.27;;;;;;;-139.48;100.00;61774.03;5012547;28;20048;-69
2021/10/19 07:37:02;;;;;;;50.30;25.98;;;;;;;-139.48;100.00;61774.03;5012437;28;20045;-69
2021/10/19 07:39:45;;;;;;;49.75;25.45;;;;;;;-139.48;100.00;61774.03;5012581;28;20417;-69
2021/10/19 07:42:32;;;;;;;51.58;26.00;;;;;;;-139.48;100.00;61774.03;5013437;28;20137;-69
2021/10/19 07:45:17;;;;;;;49.83;24.73;;;;;;;-139.48;100.00;61774.03;5012311;28;20053;-70
2021/10/19 07:48:01;;;;;;;55.45;24.75;;;;;;;-139.48;100.00;61774.03;5012231;28;20096;-69
2021/10/19 07:50:47;;;;;;;49.30;25.83;;;;;;;-139.48;100.00;61774.03;5013308;28;20053;-70
2021/10/19 07:53:32;;;;;;;48.58;25.45;;;;;;;-139.48;100.00;61774.03;5012356;28;20053;-70
2021/10/19 07:56:17;;;;;;;52.22;27.38;;;;;;;-139.48;100.00;61774.03;5012444;28;20045;-70
2021/10/19 07:59:05;;;;;;;45.88;25.27;;;;;;;-139.48;100.00;61774.03;5012587;28;20052;-69
2021/10/19 08:01:49;;;;;;;48.70;26.55;;;;;;;-139.48;100.00;61774.03;5012243;28;20100;-70
2021/10/19 08:04:33;;;;;;;47.50;25.48;;;;;;;-139.48;100.00;61774.03;4998378;28;20092;-69
2021/10/19 08:07:17;;;;;;;48.72;26.38;;;;;;;-139.48;100.00;61774.03;5002476;28;20064;-70
2021/10/19 08:10:01;;;;;;;44.17;23.60;;;;;;;-139.48;100.00;61774.03;5016521;28;20157;-70
2021/10/19 08:12:45;;;;;;;45.90;24.50;;;;;;;-139.48;100.00;61774.03;5002530;28;20549;-70
2021/10/19 08:15:30;;;;;;;43.83;22.75;;;;;;;-139.48;100.00;61774.03;5016230;28;20093;-69
2021/10/19 08:18:14;;;;;;;42.33;23.95;;;;;;;-139.48;100.00;61774.03;5016261;28;20045;-70
2021/10/19 08:20:58;;;;;;;42.00;24.13;;;;;;;-139.48;100.00;61774.03;5002192;28;20044;-69
2021/10/19 08:23:42;;;;;;;44.28;25.73;;;;;;;-139.48;100.00;61774.03;5016088;28;20113;-69
2021/10/19 08:26:30;;;;;;;44.20;24.42;;;;;;;-139.48;100.00;61774.03;5015762;28;20427;-70
2021/10/19 08:29:14;;;;;;;46.10;25.10;;;;;;;-139.48;100.00;61774.03;5015883;28;20053;-69
2021/10/19 08:31:58;;;;;;;42.35;24.88;;;;;;;-139.48;100.00;61774.03;5015898;28;20052;-67
2021/10/19 08:34:42;;;;;;;45.58;26.00;;;;;;;-139.48;100.00;61774.03;5015913;28;20518;-69
2021/10/19 08:37:26;;;;;;;41.80;24.70;;;;;;;-139.48;100.00;61774.03;5015404;28;20151;-69
2021/10/19 08:40:10;;;;;;;38.58;21.92;;;;;;;-139.48;100.00;61774.03;5015545;28;20502;-70
2021/10/19 08:42:55;;;;;;;37.60;22.60;;;;;;;-139.48;100.00;61774.03;5015749;28;20045;-69
2021/10/19 08:45:39;;;;;;;41.63;23.55;;;;;;;-139.48;100.00;61774.03;5015381;28;20045;-70
2021/10/19 08:48:23;;;;;;;38.70;21.80;;;;;;;-139.48;100.00;61774.03;5015684;28;20513;-69
2021/10/19 08:51:07;;;;;;;38.47;23.92;;;;;;;-139.48;100.00;61774.03;5015621;28;20188;-69
2021/10/19 08:53:51;;;;;;;38.03;22.80;;;;;;;-139.48;100.00;61774.03;5015426;28;20049;-69
2021/10/19 08:56:37;;;;;;;39.15;23.25;;;;;;;-139.48;100.00;61774.03;5015538;28;20041;-69
2021/10/19 08:59:22;;;;;;;36.92;21.60;;;;;;;-139.48;100.00;61774.03;5015433;28;20049;-70
2021/10/19 09:02:06;;;;;;;36.95;22.13;;;;;;;-139.48;100.00;61774.03;5016077;28;20052;-69
2021/10/19 09:04:55;;;;;;;33.50;20.83;;;;;;;-139.48;100.00;61774.03;5001756;28;20045;-69
2021/10/19 09:07:39;;;;;;;31.98;20.63;;;;;;;-139.48;100.00;61774.03;5015177;28;20143;-69
2021/10/19 09:10:25;;;;;;;31.92;20.30;;;;;;;-139.48;100.00;61774.03;5014955;28;20100;-69
2021/10/19 09:13:13;;;;;;;32.20;19.50;;;;;;;-139.48;100.00;61774.03;5015200;28;20472;-69
2021/10/19 09:15:59;;;;;;;36.90;20.45;;;;;;;-139.48;100.00;61774.03;5016075;28;20129;-69
2021/10/19 09:18:43;;;;;;;28.65;18.05;;;;;;;-139.48;100.00;61774.03;5014455;28;20053;-69
2021/10/19 09:21:28;;;;;;;30.42;16.88;;;;;;;-139.48;100.00;61774.03;5001169;28;20049;-69
2021/10/19 09:24:27;;;;;;;25.25;17.38;;;;;;;-139.48;100.00;61774.03;5016002;28;20426;-69
2021/10/19 09:27:15;;;;;;;25.83;16.67;;;;;;;-139.48;100.00;61774.03;5014532;28;20080;-69
2021/10/19 09:30:06;;;;;;;24.48;16.42;;;;;;;-139.48;100.00;61774.03;5001060;28;20048;-69
2021/10/19 09:32:51;;;;;;;26.48;16.30;;;;;;;-139.48;100.00;61774.03;5014819;28;20048;-70
2021/10/19 09:35:36;;;;;;;21.25;15.10;;;;;;;-139.48;100.00;61774.03;5014604;28;20048;-70
2021/10/19 09:38:20;;;;;;;19.20;13.57;;;;;;;-139.48;100.00;61774.03;5015500;28;20096;-70
2021/10/19 09:41:04;;;;;;;21.48;13.52;;;;;;;-139.48;100.00;61774.03;5016957;28;20045;-70
2021/10/19 09:43:48;;;;;;;18.20;12.00;;;;;;;-139.48;100.00;61774.03;5014338;28;20415;-68
2021/10/19 09:46:32;;;;;;;17.67;12.02;;;;;;;-139.48;100.00;61774.03;5014261;28;20476;-70
2021/10/19 09:49:15;;;;;;;19.05;13.50;;;;;;;-139.48;100.00;61774.03;5000829;28;20044;-70
2021/10/19 09:52:00;;;;;;;19.65;11.75;;;;;;;-139.48;100.00;61774.03;5014450;28;20052;-70
2021/10/19 09:54:45;;;;;;;17.30;11.82;;;;;;;-139.48;100.00;61774.03;5015375;28;20533;-69
2021/10/19 09:57:29;;;;;;;16.02;11.98;;;;;;;-139.48;100.00;61774.03;5013793;28;20076;-69
2021/10/19 10:00:15;;;;;;;14.68;11.35;;;;;;;-139.48;100.00;61774.03;5014979;28;20558;-69
2021/10/19 10:03:03;;;;;;;15.70;11.25;;;;;;;-139.48;100.00;61774.03;5014915;28;20052;-70
2021/10/19 10:05:47;;;;;;;15.93;10.27;;;;;;;-139.48;100.00;61774.03;5013712;28;20072;-69
2021/10/19 10:08:31;;;;;;;15.73;10.40;;;;;;;-139.48;100.00;61774.03;5015163;28;20108;-69
2021/10/19 10:11:17;;;;;;;19.52;10.82;;;;;;;-139.48;100.00;61774.03;5000420;28;20048;-69
2021/10/19 10:14:02;;;;;;;14.82;10.23;;;;;;;-139.48;100.00;61774.03;5013789;28;20207;-69
2021/10/19 10:16:49;;;;;;;18.42;10.20;;;;;;;-139.48;100.00;61774.03;5014829;28;20115;-69
2021/10/19 10:19:34;;;;;;;13.43;10.68;;;;;;;-139.48;100.00;61774.03;5014656;28;20052;-70
2021/10/19 10:22:28;;;;;;;14.27;10.13;;;;;;;-139.48;100.00;61774.03;5013874;28;20068;-69
2021/10/19 10:25:16;;;;;;;15.52;10.80;;;;;;;-139.48;100.00;61774.03;5000430;28;20135;-69
2021/10/19 10:28:09;;;;;;;13.68;10.60;;;;;;;-139.48;100.00;61774.03;5013098;28;20525;-69
2021/10/19 10:30:58;;;;;;;17.08;10.98;;;;;;;-139.48;100.00;61774.03;5013387;28;20045;-68
2021/10/19 10:33:44;;;;;;;16.52;10.27;;;;;;;-139.48;100.00;61774.03;4999601;28;20053;-70
2021/10/19 10:36:39;;;;;;;11.85;9.68;;;;;;;-139.48;100.00;61774.03;5013163;28;20048;-70
2021/10/19 10:39:33;;;;;;;12.32;9.50;;;;;;;-139.48;100.00;61774.03;5014393;28;20063;-70
2021/10/19 10:42:17;;;;;;;14.75;9.43;;;;;;;-139.48;100.00;61774.03;5013618;28;20045;-70
2021/10/19 10:45:01;;;;;;;13.13;9.48;;;;;;;-139.48;100.00;61774.03;5013539;28;20103;-69
2021/10/19 10:47:55;;;;;;;11.55;8.68;;;;;;;-139.48;100.00;61774.03;5013169;28;20410;-70
2021/10/19 10:50:45;;;;;;;12.10;8.68;;;;;;;15.33;100.00;101119.75;5071156;28;20379;-70
2021/10/19 10:53:38;;;;;;;14.10;9.55;;;;;;;15.40;100.00;101122.66;5055566;28;20051;-70
2021/10/19 10:56:22;;;;;;;11.13;8.60;;;;;;;15.33;100.00;101109.00;5055302;28;20051;-70
2021/10/19 10:59:06;;;;;;;14.65;9.40;;;;;;;15.48;100.00;101110.13;5055388;28;20401;-70
2021/10/19 11:01:51;;;;;;;13.00;8.68;;;;;;;15.53;100.00;101109.66;5069553;28;20111;-70
2021/10/19 11:04:46;;;;;;;13.82;8.93;;;;;;;15.63;100.00;101099.66;5069246;28;20063;-70
2021/10/19 11:07:35;;;;;;;14.70;9.18;;;;;;;15.94;100.00;101099.91;5055301;28;20524;-70
2021/10/19 11:10:21;;;;;;;14.13;8.60;;;;;;;16.15;100.00;101102.22;5069255;28;20107;-69
2021/10/19 11:13:05;;;;;;;14.50;9.07;;;;;;;16.41;97.55;101093.13;5069012;28;20106;-70
2021/10/19 11:15:52;;;;;;;12.27;8.30;;;;;;;16.70;94.81;101090.03;5069166;28;20079;-69
2021/10/19 11:18:36;;;;;;;10.77;7.97;;;;;;;16.83;91.72;101091.25;5068886;28;20056;-69
2021/10/19 11:21:20;;;;;;;12.38;8.07;;;;;;;17.46;90.51;101086.13;5068974;28;20056;-70
2021/10/19 11:24:04;;;;;;;18.15;8.57;;;;;;;18.11;85.01;101083.19;5069037;28;20054;-70
2021/10/19 11:26:48;;;;;;;9.32;7.28;;;;;;;18.30;80.32;101088.22;5068762;28;20056;-70
2021/10/19 11:29:37;;;;;;;13.13;7.47;;;;;;;18.86;79.49;101085.28;5054598;28;20409;-70
2021/10/19 11:32:21;;;;;;;12.18;7.68;;;;;;;18.76;76.79;101084.66;5068823;28;20055;-70
2021/10/19 11:35:06;;;;;;;8.27;6.90;;;;;;;18.72;78.32;101078.75;5068509;28;20051;-68
2021/10/19 11:37:50;;;;;;;8.75;6.85;;;;;;;-139.48;100.00;61774.03;5054235;28;20051;-70
2021/10/19 11:40:34;;;;;;;9.35;6.70;;;;;;;-139.48;100.00;61774.03;5068659;28;20043;-70
2021/10/19 11:43:19;;;;;;;6.53;5.82;;;;;;;18.72;78.32;101078.75;5068628;28;20048;-70
2021/10/19 11:46:12;;;;;;;8.80;6.38;;;;;;;21.57;61.01;101060.53;5068382;28;20055;-70
2021/10/19 11:49:02;;;;;;;7.85;6.38;;;;;;;21.73;61.24;101071.13;5054208;28;20098;-70
2021/10/19 11:51:48;;;;;;;12.18;6.40;;;;;;;22.19;60.17;101071.47;5068415;28;20055;-70
2021/10/19 11:54:32;;;;;;;6.63;5.90;;;;;;;21.79;58.99;101067.63;5068228;28;20056;-70
2021/10/19 11:57:21;;;;;;;9.13;5.95;;;;;;;21.58;60.24;101073.06;5054025;28;20046;-71
2021/10/19 12:00:09;;;;;;;7.63;6.32;;;;;;;21.23;62.00;101056.03;5066508;28;20036;-70
2021/10/19 12:02:57;;;;;;;7.82;5.90;;;;;;;20.62;63.83;101062.00;5054932;28;20051;-70
2021/10/19 12:05:42;;;;;;;9.07;6.45;;;;;;;20.46;64.60;101063.03;5054982;28;20071;-70
2021/10/19 12:08:31;;;;;;;7.03;5.63;;;;;;;19.72;67.44;101062.31;5040729;28;20402;-70
2021/10/19 12:11:15;;;;;;;6.75;5.57;;;;;;;19.45;69.30;101054.78;5055052;28;20106;-70
2021/10/19 12:13:59;;;;;;;8.40;5.38;;;;;;;19.38;70.11;101054.66;5055787;28;20132;-70
2021/10/19 12:16:50;;;;;;;7.63;5.95;;;;;;;19.16;70.43;101052.78;5054676;28;20071;-70